Allenville, Illinois
Current Conditions -  °F | °C
As of 5:53 PM on Wednesday 22 Oct 2014 (Local Time) from KMTO Reporting Station
Clear Clear  
Wind Chill: 55°   Ceiling: Unl
Heat Index: 55°   Visibility: 10mi
Dew Point: 38°   Wind: 3mph
Humidity: 53%   Direction: 60°ENE
Pressure: 30.24"   Gusts: NA
Location:  39.5872°N, 88.5835°W
Report Text: KMTO 222253Z AUTO 06003KT 10SM CLR 13/03 A3024 RMK AO2 SLP243 T01280033
Loading
Personal Weather Stations






























Interactive Weather Map
Tropical Storm Tracking
New forecast layout! Learn more

10-Day Weather Forecast

Advertisements
Track Severe Weather on mobile